createdAt,value
2017-05-19T00:00:16.656Z,19.16
2017-05-19T00:00:42.797Z,19.18
2017-05-19T00:01:08.893Z,19.16
2017-05-19T00:01:35.001Z,19.11
2017-05-19T00:02:01.127Z,19.11
2017-05-19T00:02:27.221Z,19.08
2017-05-19T00:02:53.412Z,19.07
2017-05-19T00:03:19.541Z,19.11
2017-05-19T00:03:45.705Z,19.11
2017-05-19T00:04:11.812Z,19.12
2017-05-19T00:04:37.911Z,19.09
2017-05-19T00:05:04.027Z,19.08
2017-05-19T00:05:30.131Z,19.08
2017-05-19T00:05:56.240Z,19.04
2017-05-19T00:06:22.329Z,19.11
2017-05-19T00:06:48.429Z,19.11
2017-05-19T00:07:14.535Z,19.12
2017-05-19T00:07:40.649Z,19.09
2017-05-19T00:08:06.800Z,19.09
2017-05-19T00:08:32.953Z,19.16
2017-05-19T00:08:59.058Z,19.24
2017-05-19T00:09:25.197Z,19.26
2017-05-19T00:09:51.313Z,19.18
2017-05-19T00:10:17.461Z,19.18
2017-05-19T00:10:43.600Z,19.14
2017-05-19T00:11:09.720Z,19.12
2017-05-19T00:11:35.817Z,19.18
2017-05-19T00:12:01.953Z,19.19
2017-05-19T00:12:28.046Z,19.18
2017-05-19T00:12:54.165Z,19.18
2017-05-19T00:13:20.277Z,19.22
2017-05-19T00:13:46.431Z,19.15
2017-05-19T00:14:12.536Z,19.16
2017-05-19T00:14:38.654Z,19.12
2017-05-19T00:15:04.778Z,19.26
2017-05-19T00:15:30.887Z,19.19
2017-05-19T00:15:56.986Z,19.19
2017-05-19T00:16:23.100Z,19.18
2017-05-19T00:16:49.211Z,19.09
2017-05-19T00:17:15.336Z,19.11
2017-05-19T00:17:41.450Z,19.14
2017-05-19T00:18:07.588Z,19.11
2017-05-19T00:18:33.746Z,19.04
2017-05-19T00:18:59.864Z,19.08
2017-05-19T00:19:25.970Z,19.08
2017-05-19T00:19:52.118Z,19.11
2017-05-19T00:20:18.276Z,19.08
2017-05-19T00:20:44.402Z,19.09
2017-05-19T00:21:10.495Z,19.09
2017-05-19T00:21:36.630Z,19.07
2017-05-19T00:22:02.757Z,19.08
2017-05-19T00:22:28.872Z,19.04
2017-05-19T00:22:55.002Z,18.99
2017-05-19T00:23:21.166Z,19.07
2017-05-19T00:23:47.308Z,19.04
2017-05-19T00:24:13.484Z,19.08
2017-05-19T00:24:39.591Z,19.07
2017-05-19T00:25:05.735Z,18.96
2017-05-19T00:25:31.867Z,18.96
2017-05-19T00:25:57.961Z,18.89
2017-05-19T00:26:24.065Z,18.96
2017-05-19T00:26:50.201Z,18.89
2017-05-19T00:27:16.314Z,18.88
2017-05-19T00:27:42.451Z,18.96
2017-05-19T00:28:08.581Z,18.9
2017-05-19T00:28:34.724Z,18.9
2017-05-19T00:29:00.846Z,18.84
2017-05-19T00:29:27.035Z,18.88
2017-05-19T00:29:53.133Z,18.9
2017-05-19T00:30:19.270Z,18.84
2017-05-19T00:30:45.374Z,18.89
2017-05-19T00:31:11.476Z,18.9
2017-05-19T00:31:37.606Z,18.96
2017-05-19T00:32:03.699Z,18.9
2017-05-19T00:32:29.819Z,18.95
2017-05-19T00:32:55.928Z,19.07
2017-05-19T00:33:22.021Z,19
2017-05-19T00:33:48.188Z,18.98
2017-05-19T00:34:14.354Z,19.07
2017-05-19T00:34:40.481Z,18.88
2017-05-19T00:35:06.601Z,18.84
2017-05-19T00:35:32.708Z,18.88
2017-05-19T00:35:58.839Z,18.84
2017-05-19T00:36:24.985Z,18.88
2017-05-19T00:36:51.080Z,18.88
2017-05-19T00:37:17.221Z,18.8
2017-05-19T00:37:43.360Z,18.8
2017-05-19T00:38:09.492Z,18.84
2017-05-19T00:38:35.580Z,18.83
2017-05-19T00:39:01.688Z,18.84
2017-05-19T00:39:27.874Z,18.86
2017-05-19T00:39:54.017Z,18.83
2017-05-19T00:40:20.177Z,18.83
2017-05-19T00:40:46.308Z,18.88
2017-05-19T00:41:12.395Z,18.98
2017-05-19T00:41:38.496Z,18.96
2017-05-19T00:42:04.618Z,19
2017-05-19T00:42:30.718Z,18.98
2017-05-19T00:42:56.873Z,19.07
2017-05-19T00:43:22.990Z,19.07
2017-05-19T00:43:49.144Z,19.11
2017-05-19T00:44:15.280Z,19.11
2017-05-19T00:44:41.368Z,19.12
2017-05-19T00:45:07.496Z,19.11
2017-05-19T00:45:33.629Z,19.22
2017-05-19T00:45:59.748Z,19.16
2017-05-19T00:46:25.870Z,19.15
2017-05-19T00:46:51.977Z,19.22
2017-05-19T00:47:18.096Z,19.31
2017-05-19T00:47:44.189Z,19.27
2017-05-19T00:48:10.324Z,19.29
2017-05-19T00:48:36.449Z,19.3
2017-05-19T00:49:02.541Z,19.37
2017-05-19T00:49:28.679Z,19.29
2017-05-19T00:49:54.808Z,19.27
2017-05-19T00:50:20.922Z,19.24
2017-05-19T00:50:47.027Z,19.22
2017-05-19T00:51:13.137Z,19.3
2017-05-19T00:51:39.226Z,19.29
2017-05-19T00:52:05.328Z,19.27
2017-05-19T00:52:31.436Z,19.26
2017-05-19T00:52:57.581Z,19.24
2017-05-19T00:53:23.714Z,19.27
2017-05-19T00:53:49.830Z,19.16
2017-05-19T00:54:15.981Z,19.22
2017-05-19T00:54:42.088Z,19.24
2017-05-19T00:55:08.223Z,19.09
2017-05-19T00:55:34.346Z,19.14
2017-05-19T00:56:00.451Z,19.09
2017-05-19T00:56:26.568Z,19.04
2017-05-19T00:56:52.691Z,19
2017-05-19T00:57:18.798Z,19.07
2017-05-19T00:57:44.893Z,19.04
2017-05-19T00:58:10.984Z,19.02
2017-05-19T00:58:37.114Z,18.93
2017-05-19T00:59:03.215Z,19.04
2017-05-19T00:59:29.319Z,18.92
2017-05-19T00:59:55.410Z,18.99
2017-05-19T01:00:21.521Z,19.11
2017-05-19T01:00:47.628Z,19.11
2017-05-19T01:01:13.773Z,19.07
2017-05-19T01:01:39.888Z,19.09
2017-05-19T01:02:06.026Z,19.14
2017-05-19T01:02:32.151Z,19.14
2017-05-19T01:02:58.270Z,19.04
2017-05-19T01:03:24.427Z,19.08
2017-05-19T01:03:50.583Z,19.08
2017-05-19T01:04:16.684Z,19.11
2017-05-19T01:04:42.805Z,19.14
2017-05-19T01:05:08.943Z,19.19
2017-05-19T01:05:35.065Z,19.21
2017-05-19T01:06:01.186Z,19.12
2017-05-19T01:06:27.276Z,19.12
2017-05-19T01:06:53.383Z,19.07
2017-05-19T01:07:19.545Z,19.04
2017-05-19T01:07:45.662Z,18.99
2017-05-19T01:08:11.793Z,19.07
2017-05-19T01:08:37.925Z,19.09
2017-05-19T01:09:04.041Z,19.08
2017-05-19T01:09:30.148Z,19.04
2017-05-19T01:09:56.289Z,19.11
2017-05-19T01:10:22.418Z,19.09
2017-05-19T01:10:48.547Z,19.09
2017-05-19T01:11:14.637Z,19.07
2017-05-19T01:11:40.790Z,19.08
2017-05-19T01:12:06.922Z,18.99
2017-05-19T01:12:33.011Z,18.86
2017-05-19T01:12:59.166Z,18.81
2017-05-19T01:13:25.329Z,18.84
2017-05-19T01:13:51.498Z,18.8
2017-05-19T01:14:17.621Z,18.86
2017-05-19T01:14:43.728Z,18.89
2017-05-19T01:15:09.871Z,18.88
2017-05-19T01:15:35.979Z,18.93
2017-05-19T01:16:02.068Z,18.99
2017-05-19T01:16:28.168Z,19.04
2017-05-19T01:16:54.276Z,18.98
2017-05-19T01:17:20.394Z,19.04
2017-05-19T01:17:46.519Z,19.09
2017-05-19T01:18:12.626Z,19.07
2017-05-19T01:18:38.723Z,18.99
2017-05-19T01:19:04.818Z,18.99
2017-05-19T01:19:30.979Z,19.04
2017-05-19T01:19:57.078Z,19.07
2017-05-19T01:20:23.220Z,19.07
2017-05-19T01:20:49.356Z,19.11
2017-05-19T01:21:15.450Z,19.02
2017-05-19T01:21:41.584Z,19.09
2017-05-19T01:22:07.705Z,19.12
2017-05-19T01:22:33.798Z,19.08
2017-05-19T01:22:59.991Z,19.08
2017-05-19T01:23:26.117Z,19.07
2017-05-19T01:23:52.236Z,18.99
2017-05-19T01:24:18.400Z,19.02
2017-05-19T01:24:44.555Z,19.11
2017-05-19T01:25:10.672Z,18.99
2017-05-19T01:25:36.832Z,19.02
2017-05-19T01:26:02.968Z,19.04
2017-05-19T01:26:29.067Z,18.98
2017-05-19T01:26:55.213Z,18.96
2017-05-19T01:27:21.335Z,19.02
2017-05-19T01:27:47.465Z,18.88
2017-05-19T01:28:13.594Z,18.93
2017-05-19T01:28:39.684Z,18.89
2017-05-19T01:29:05.788Z,19.08
2017-05-19T01:29:31.949Z,18.9
2017-05-19T01:29:58.089Z,18.9
2017-05-19T01:30:24.243Z,18.81
2017-05-19T01:30:50.376Z,18.86
2017-05-19T01:31:16.468Z,18.81
2017-05-19T01:31:42.566Z,18.81
2017-05-19T01:32:08.703Z,18.88
2017-05-19T01:32:34.818Z,18.88
2017-05-19T01:33:00.956Z,18.86
2017-05-19T01:33:27.121Z,18.89
2017-05-19T01:33:53.245Z,18.88
2017-05-19T01:34:19.360Z,18.81
2017-05-19T01:34:45.472Z,18.83
2017-05-19T01:35:11.602Z,18.88
2017-05-19T01:35:37.719Z,18.95
2017-05-19T01:36:03.855Z,19
2017-05-19T01:36:29.984Z,18.99
2017-05-19T01:36:56.099Z,19
2017-05-19T01:37:22.227Z,18.98
2017-05-19T01:37:48.372Z,19
2017-05-19T01:38:14.505Z,19
2017-05-19T01:38:40.662Z,19.12
2017-05-19T01:39:06.780Z,19.12
2017-05-19T01:39:32.933Z,19.07
2017-05-19T01:39:59.040Z,19.08
2017-05-19T01:40:25.157Z,19.02
2017-05-19T01:40:51.285Z,19.09
2017-05-19T01:41:17.392Z,19.11
2017-05-19T01:41:43.510Z,19.11
2017-05-19T01:42:09.633Z,19.09
2017-05-19T01:42:35.795Z,19.22
2017-05-19T01:43:01.949Z,19.24
2017-05-19T01:43:28.080Z,19.18
2017-05-19T01:43:54.170Z,19.18
2017-05-19T01:44:20.294Z,19.12
2017-05-19T01:44:46.402Z,19.27
2017-05-19T01:45:12.493Z,19.33
2017-05-19T01:45:38.591Z,19.33
2017-05-19T01:46:04.724Z,19.44
2017-05-19T01:46:30.845Z,19.47
2017-05-19T01:46:56.935Z,19.51
2017-05-19T01:47:23.099Z,19.51
2017-05-19T01:47:49.251Z,19.45
2017-05-19T01:48:15.344Z,19.62
2017-05-19T01:48:41.531Z,19.58
2017-05-19T01:49:07.649Z,19.64
2017-05-19T01:49:33.784Z,19.63
2017-05-19T01:49:59.906Z,19.55
2017-05-19T01:50:26.025Z,19.58
2017-05-19T01:50:52.190Z,19.55
2017-05-19T01:51:18.316Z,19.56
2017-05-19T01:51:44.432Z,19.55
2017-05-19T01:52:10.541Z,19.51
2017-05-19T01:52:36.669Z,19.56
2017-05-19T01:53:02.809Z,19.58
2017-05-19T01:53:28.969Z,19.52
2017-05-19T01:53:55.133Z,19.62
2017-05-19T01:54:21.305Z,19.64
2017-05-19T01:54:47.431Z,19.58
2017-05-19T01:55:13.574Z,19.66
2017-05-19T01:55:39.684Z,19.66
2017-05-19T01:56:05.814Z,19.66
2017-05-19T01:56:31.905Z,19.71
2017-05-19T01:56:58.009Z,19.63
2017-05-19T01:57:24.143Z,19.62
2017-05-19T01:57:50.231Z,19.63
2017-05-19T01:58:16.385Z,19.66
2017-05-19T01:58:42.528Z,19.66
2017-05-19T01:59:08.641Z,19.69
2017-05-19T01:59:34.789Z,19.71
2017-05-19T02:00:00.888Z,19.66
2017-05-19T02:00:26.992Z,19.74
2017-05-19T02:00:53.129Z,19.71
2017-05-19T02:01:19.244Z,19.74
2017-05-19T02:01:45.371Z,19.69
2017-05-19T02:02:11.505Z,19.63
2017-05-19T02:02:37.619Z,19.66
2017-05-19T02:03:03.736Z,19.66
2017-05-19T02:03:29.846Z,19.62
2017-05-19T02:03:55.994Z,19.58
2017-05-19T02:04:22.154Z,19.59
2017-05-19T02:04:48.324Z,19.63
2017-05-19T02:05:14.449Z,19.64
2017-05-19T02:05:40.554Z,19.59
2017-05-19T02:06:06.670Z,19.56
2017-05-19T02:06:32.768Z,19.67
2017-05-19T02:06:58.876Z,19.54
2017-05-19T02:07:24.969Z,19.59
2017-05-19T02:07:51.062Z,19.62
2017-05-19T02:08:17.256Z,19.59
2017-05-19T02:08:43.433Z,19.63
2017-05-19T02:09:09.551Z,19.66
2017-05-19T02:09:35.661Z,19.58
2017-05-19T02:10:01.819Z,19.67
2017-05-19T02:10:27.934Z,19.64
2017-05-19T02:10:54.038Z,19.7
2017-05-19T02:11:20.129Z,19.66
2017-05-19T02:11:46.239Z,19.66
2017-05-19T02:12:12.364Z,19.64
2017-05-19T02:12:38.455Z,19.63
2017-05-19T02:13:04.585Z,19.64
2017-05-19T02:13:30.713Z,19.62
2017-05-19T02:13:56.854Z,19.59
2017-05-19T02:14:22.984Z,19.63
2017-05-19T02:14:49.121Z,19.71
2017-05-19T02:15:15.235Z,19.67
2017-05-19T02:15:41.338Z,19.7
2017-05-19T02:16:07.546Z,19.67
2017-05-19T02:16:33.640Z,19.64
2017-05-19T02:16:59.787Z,19.67
2017-05-19T02:17:25.950Z,19.67
2017-05-19T02:17:52.045Z,19.64
2017-05-19T02:18:18.184Z,19.63
2017-05-19T02:18:44.331Z,19.62
2017-05-19T02:19:10.485Z,19.66
2017-05-19T02:19:36.577Z,19.71
2017-05-19T02:20:02.683Z,19.66
2017-05-19T02:20:28.813Z,19.69
2017-05-19T02:20:54.906Z,19.67
2017-05-19T02:21:21.035Z,19.69
2017-05-19T02:21:47.143Z,19.71
2017-05-19T02:22:13.266Z,19.7
2017-05-19T02:22:39.394Z,19.69
2017-05-19T02:23:05.513Z,19.67
2017-05-19T02:23:31.619Z,19.63
2017-05-19T02:23:57.748Z,19.62
2017-05-19T02:24:23.864Z,19.62
2017-05-19T02:24:49.967Z,19.58
2017-05-19T02:25:16.075Z,19.58
2017-05-19T02:25:42.157Z,19.62
2017-05-19T02:26:08.308Z,19.62
2017-05-19T02:26:34.413Z,19.58
2017-05-19T02:27:00.529Z,19.56
2017-05-19T02:27:26.650Z,19.54
2017-05-19T02:27:52.749Z,19.56
2017-05-19T02:28:18.908Z,19.56
2017-05-19T02:28:45.073Z,19.56
2017-05-19T02:29:11.212Z,19.62
2017-05-19T02:29:37.316Z,19.62
2017-05-19T02:30:03.480Z,19.64
2017-05-19T02:30:29.573Z,19.54
2017-05-19T02:30:55.721Z,19.55
2017-05-19T02:31:21.829Z,19.48
2017-05-19T02:31:47.949Z,19.48
2017-05-19T02:32:14.035Z,19.52
2017-05-19T02:32:40.175Z,19.52
2017-05-19T02:33:06.298Z,19.54
2017-05-19T02:33:32.431Z,19.49
2017-05-19T02:33:58.522Z,19.55
2017-05-19T02:34:24.619Z,19.51
2017-05-19T02:34:50.757Z,19.51
2017-05-19T02:35:16.876Z,19.39
2017-05-19T02:35:42.969Z,19.36
2017-05-19T02:36:09.108Z,19.36
2017-05-19T02:36:35.206Z,19.31
2017-05-19T02:37:01.296Z,19.39
2017-05-19T02:37:27.403Z,19.51
2017-05-19T02:37:53.506Z,19.47
2017-05-19T02:38:19.599Z,19.49
2017-05-19T02:38:45.703Z,19.48
2017-05-19T02:39:11.822Z,19.55
2017-05-19T02:39:37.984Z,19.59
2017-05-19T02:40:04.109Z,19.56
2017-05-19T02:40:30.201Z,19.62
2017-05-19T02:40:56.360Z,19.56
2017-05-19T02:41:22.461Z,19.58
2017-05-19T02:41:48.554Z,19.62
2017-05-19T02:42:14.709Z,19.55
2017-05-19T02:42:40.817Z,19.51
2017-05-19T02:43:06.905Z,19.49
2017-05-19T02:43:33.061Z,19.48
2017-05-19T02:43:59.319Z,19.41
2017-05-19T02:44:25.480Z,19.37
2017-05-19T02:44:51.587Z,19.36
2017-05-19T02:45:17.667Z,19.39
2017-05-19T02:45:43.772Z,19.39
2017-05-19T02:46:09.937Z,19.36
2017-05-19T02:46:36.052Z,19.4
2017-05-19T02:47:02.206Z,19.37
2017-05-19T02:47:28.342Z,19.36
2017-05-19T02:47:54.464Z,19.44
2017-05-19T02:48:20.587Z,19.4
2017-05-19T02:48:46.751Z,19.44
2017-05-19T02:49:12.900Z,19.39
2017-05-19T02:49:39.017Z,19.37
2017-05-19T02:50:05.154Z,19.36
2017-05-19T02:50:31.280Z,19.3
2017-05-19T02:50:57.386Z,19.3
2017-05-19T02:51:23.503Z,19.29
2017-05-19T02:51:49.627Z,19.26
2017-05-19T02:52:15.787Z,19.29
2017-05-19T02:52:41.914Z,19.3
2017-05-19T02:53:08.024Z,19.34
2017-05-19T02:53:34.188Z,19.31
2017-05-19T02:54:00.310Z,19.27
2017-05-19T02:54:26.427Z,19.27
2017-05-19T02:54:52.587Z,19.27
2017-05-19T02:55:18.686Z,19.3
2017-05-19T02:55:44.789Z,19.33
2017-05-19T02:56:10.908Z,19.3
2017-05-19T02:56:36.999Z,19.33
2017-05-19T02:57:03.111Z,19.31
2017-05-19T02:57:29.236Z,19.3
2017-05-19T02:57:55.328Z,19.36
2017-05-19T02:58:21.456Z,19.29
2017-05-19T02:58:47.615Z,19.27
2017-05-19T02:59:13.787Z,19.26
2017-05-19T02:59:39.933Z,19.14
2017-05-19T03:00:06.070Z,19.26
2017-05-19T03:00:32.160Z,19.14
2017-05-19T03:00:58.261Z,19.19
2017-05-19T03:01:24.368Z,19.11
2017-05-19T03:01:50.489Z,19.27
2017-05-19T03:02:16.637Z,19.22
2017-05-19T03:02:42.802Z,19.11
2017-05-19T03:03:08.929Z,19.11
2017-05-19T03:03:35.020Z,19.15
2017-05-19T03:04:01.211Z,19.26
2017-05-19T03:04:27.334Z,19.26
2017-05-19T03:04:53.475Z,19.22
2017-05-19T03:05:19.605Z,19.24
2017-05-19T03:05:45.706Z,19.27
2017-05-19T03:06:11.798Z,19.22
2017-05-19T03:06:37.927Z,19.24
2017-05-19T03:07:04.013Z,19.29
2017-05-19T03:07:30.150Z,19.22
2017-05-19T03:07:56.277Z,19.29
2017-05-19T03:08:22.395Z,19.26
2017-05-19T03:08:48.530Z,19.19
2017-05-19T03:09:14.633Z,19.18
2017-05-19T03:09:40.774Z,19.12
2017-05-19T03:10:06.900Z,19.08
2017-05-19T03:10:33.007Z,19.08
2017-05-19T03:10:59.120Z,19.08
2017-05-19T03:11:25.221Z,19.14
2017-05-19T03:11:51.328Z,19.11
2017-05-19T03:12:17.420Z,19.12
2017-05-19T03:12:43.580Z,19.04
2017-05-19T03:13:09.694Z,19.11
2017-05-19T03:13:35.801Z,19.09
2017-05-19T03:14:01.929Z,19.09
2017-05-19T03:14:28.018Z,19.08
2017-05-19T03:14:54.144Z,19.15
2017-05-19T03:15:20.304Z,19.02
2017-05-19T03:15:46.399Z,18.96
2017-05-19T03:16:12.495Z,18.98
2017-05-19T03:16:38.632Z,18.98
2017-05-19T03:17:04.780Z,19.02
2017-05-19T03:17:30.898Z,18.99
2017-05-19T03:17:57.053Z,18.89
2017-05-19T03:18:23.178Z,19
2017-05-19T03:18:49.370Z,18.93
2017-05-19T03:19:15.490Z,18.95
2017-05-19T03:19:41.590Z,18.98
2017-05-19T03:20:07.723Z,18.92
2017-05-19T03:20:33.844Z,18.89
2017-05-19T03:20:59.937Z,18.9
2017-05-19T03:21:26.075Z,19
2017-05-19T03:21:52.228Z,18.98
2017-05-19T03:22:18.344Z,18.89
2017-05-19T03:22:44.507Z,18.89
2017-05-19T03:23:10.638Z,18.88
2017-05-19T03:23:36.791Z,18.95
2017-05-19T03:24:02.907Z,18.99
2017-05-19T03:24:28.999Z,18.96
2017-05-19T03:24:55.138Z,19
2017-05-19T03:25:21.236Z,18.95
2017-05-19T03:25:47.327Z,19.11
2017-05-19T03:26:13.461Z,19.07
2017-05-19T03:26:39.591Z,19.08
2017-05-19T03:27:05.683Z,18.99
2017-05-19T03:27:31.814Z,19.02
2017-05-19T03:27:57.925Z,19.02
2017-05-19T03:28:24.058Z,19.07
2017-05-19T03:28:50.183Z,19.07
2017-05-19T03:29:16.329Z,18.93
2017-05-19T03:29:42.492Z,19.08
2017-05-19T03:30:08.621Z,19.08
2017-05-19T03:30:34.737Z,19.09
2017-05-19T03:31:00.888Z,19.11
2017-05-19T03:31:27.025Z,19.08
2017-05-19T03:31:53.185Z,18.93
2017-05-19T03:32:19.308Z,19.08
2017-05-19T03:32:45.417Z,19.02
2017-05-19T03:33:11.612Z,18.99
2017-05-19T03:33:37.762Z,19.04
2017-05-19T03:34:03.895Z,19.08
2017-05-19T03:34:30.017Z,19.04
2017-05-19T03:34:56.149Z,19.04
2017-05-19T03:35:22.293Z,19.12
2017-05-19T03:35:48.394Z,19.08
2017-05-19T03:36:14.501Z,19.09
2017-05-19T03:36:40.594Z,19.07
2017-05-19T03:37:06.716Z,19.11
2017-05-19T03:37:32.823Z,19.15
2017-05-19T03:37:58.968Z,19.04
2017-05-19T03:38:25.083Z,19.09
2017-05-19T03:38:51.322Z,19.09
2017-05-19T03:39:17.445Z,19.08
2017-05-19T03:39:43.535Z,19.04
2017-05-19T03:40:09.641Z,19.07
2017-05-19T03:40:35.814Z,19.09
2017-05-19T03:41:01.975Z,19.11
2017-05-19T03:41:28.091Z,19.09
2017-05-19T03:41:54.210Z,19.14
2017-05-19T03:42:20.347Z,19.07
2017-05-19T03:42:46.527Z,19.21
2017-05-19T03:43:12.669Z,19.07
2017-05-19T03:43:38.802Z,19.14
2017-05-19T03:44:04.960Z,19.12
2017-05-19T03:44:31.052Z,19.18
2017-05-19T03:44:57.182Z,19.11
2017-05-19T03:45:23.346Z,19.26
2017-05-19T03:45:49.462Z,19.22
2017-05-19T03:46:15.590Z,19.18
2017-05-19T03:46:41.726Z,19.21
2017-05-19T03:47:07.868Z,19.14
2017-05-19T03:47:33.967Z,19.22
2017-05-19T03:48:00.098Z,19.16
2017-05-19T03:48:26.189Z,19.14
2017-05-19T03:48:52.280Z,19.15
2017-05-19T03:49:18.417Z,19.14
2017-05-19T03:49:44.521Z,19.27
2017-05-19T03:50:10.613Z,19.15
2017-05-19T03:50:36.725Z,19.16
2017-05-19T03:51:02.825Z,19.12
2017-05-19T03:51:28.928Z,19.14
2017-05-19T03:51:55.024Z,19.21
2017-05-19T03:52:21.117Z,19.18
2017-05-19T03:52:47.230Z,19.15
2017-05-19T03:53:13.383Z,19.21
2017-05-19T03:53:39.525Z,19.16
2017-05-19T03:54:05.683Z,19.21
2017-05-19T03:54:31.784Z,19.19
2017-05-19T03:54:57.876Z,19.12
2017-05-19T03:55:23.980Z,19.26
2017-05-19T03:55:50.087Z,19.29
2017-05-19T03:56:16.200Z,19.29
2017-05-19T03:56:42.337Z,19.22
2017-05-19T03:57:08.459Z,19.24
2017-05-19T03:57:34.583Z,19.27
2017-05-19T03:58:00.758Z,19.26
2017-05-19T03:58:26.877Z,19.29
2017-05-19T03:58:53.017Z,19.26
2017-05-19T03:59:19.178Z,19.3
2017-05-19T03:59:45.260Z,19.34
2017-05-19T04:00:11.416Z,19.24
2017-05-19T04:00:37.525Z,19.14
2017-05-19T04:01:03.643Z,19.16
2017-05-19T04:01:29.742Z,19.16
2017-05-19T04:01:55.854Z,19.08
2017-05-19T04:02:21.945Z,19.12
2017-05-19T04:02:48.135Z,19.12
2017-05-19T04:03:14.248Z,19.15
2017-05-19T04:03:40.379Z,19.11
2017-05-19T04:04:06.540Z,19.07
2017-05-19T04:04:32.657Z,19.11
2017-05-19T04:04:58.760Z,19.09
2017-05-19T04:05:24.918Z,19.18
2017-05-19T04:05:51.015Z,19.24
2017-05-19T04:06:17.129Z,19.24
2017-05-19T04:06:43.241Z,19.15
2017-05-19T04:07:09.368Z,19.22
2017-05-19T04:07:35.484Z,19.26
2017-05-19T04:08:01.620Z,19.26
2017-05-19T04:08:27.741Z,19.33
2017-05-19T04:08:54.224Z,19.34
2017-05-19T04:09:20.348Z,19.33
2017-05-19T04:09:46.485Z,19.33
2017-05-19T04:10:12.597Z,19.31
2017-05-19T04:10:38.699Z,19.37
2017-05-19T04:11:04.791Z,19.4
2017-05-19T04:11:30.922Z,19.36
2017-05-19T04:11:57.022Z,19.39
2017-05-19T04:12:23.114Z,19.3
2017-05-19T04:12:49.218Z,19.36
2017-05-19T04:13:15.353Z,19.31
2017-05-19T04:13:41.499Z,19.39
2017-05-19T04:14:07.597Z,19.33
2017-05-19T04:14:33.763Z,19.24
2017-05-19T04:14:59.893Z,19.26
2017-05-19T04:15:26.049Z,19.27
2017-05-19T04:15:52.142Z,19.29
2017-05-19T04:16:18.305Z,19.3
2017-05-19T04:16:44.442Z,19.29
2017-05-19T04:17:10.532Z,19.31
2017-05-19T04:17:36.658Z,19.44
2017-05-19T04:18:02.825Z,19.37
2017-05-19T04:18:28.970Z,19.4
2017-05-19T04:18:55.092Z,19.47
2017-05-19T04:19:21.220Z,19.47
2017-05-19T04:19:47.373Z,19.49
2017-05-19T04:20:13.506Z,19.45
2017-05-19T04:20:39.618Z,19.39
2017-05-19T04:21:05.818Z,19.49
2017-05-19T04:21:31.930Z,19.39
2017-05-19T04:21:58.075Z,19.51
2017-05-19T04:22:24.174Z,19.51
2017-05-19T04:22:50.280Z,19.58
2017-05-19T04:23:16.377Z,19.56
2017-05-19T04:23:42.543Z,19.63
2017-05-19T04:24:08.681Z,19.62
2017-05-19T04:24:34.833Z,19.66
2017-05-19T04:25:00.964Z,19.63
2017-05-19T04:25:27.110Z,19.59
2017-05-19T04:25:53.210Z,19.58
2017-05-19T04:26:19.346Z,19.59
2017-05-19T04:26:45.441Z,19.66
2017-05-19T04:27:11.584Z,19.63
2017-05-19T04:27:37.694Z,19.63
2017-05-19T04:28:03.880Z,19.56
2017-05-19T04:28:30.020Z,19.62
2017-05-19T04:28:56.204Z,19.55
2017-05-19T04:29:22.304Z,19.67
2017-05-19T04:29:48.420Z,19.67
2017-05-19T04:30:14.548Z,19.81
2017-05-19T04:30:40.683Z,19.77
2017-05-19T04:31:06.771Z,19.84
2017-05-19T04:31:32.895Z,19.84
2017-05-19T04:31:59.030Z,19.82
2017-05-19T04:32:25.148Z,19.71
2017-05-19T04:32:51.296Z,19.79
2017-05-19T04:33:17.431Z,19.84
2017-05-19T04:33:43.527Z,19.82
2017-05-19T04:34:09.644Z,19.79
2017-05-19T04:34:35.812Z,19.77
2017-05-19T04:35:01.992Z,19.82
2017-05-19T04:35:28.084Z,19.86
2017-05-19T04:35:54.193Z,19.76
2017-05-19T04:36:20.313Z,19.74
2017-05-19T04:36:46.423Z,19.64
2017-05-19T04:37:12.519Z,19.64
2017-05-19T04:37:38.611Z,19.69
2017-05-19T04:38:04.831Z,19.66
2017-05-19T04:38:30.955Z,19.73
2017-05-19T04:38:57.073Z,19.7
2017-05-19T04:39:23.206Z,19.7
2017-05-19T04:39:49.363Z,19.74
2017-05-19T04:40:15.499Z,19.7
2017-05-19T04:40:41.603Z,19.69
2017-05-19T04:41:07.712Z,19.67
2017-05-19T04:41:33.803Z,19.66
2017-05-19T04:41:59.927Z,19.69
2017-05-19T04:42:26.018Z,19.66
2017-05-19T04:42:52.178Z,19.67
2017-05-19T04:43:18.306Z,19.58
2017-05-19T04:43:44.423Z,19.55
2017-05-19T04:44:10.550Z,19.59
2017-05-19T04:44:36.679Z,19.7
2017-05-19T04:45:02.820Z,19.7
2017-05-19T04:45:28.943Z,19.63
2017-05-19T04:45:55.052Z,19.66
2017-05-19T04:46:21.198Z,19.64
2017-05-19T04:46:47.298Z,19.52
2017-05-19T04:47:13.452Z,19.55
2017-05-19T04:47:39.612Z,19.59
2017-05-19T04:48:05.779Z,19.59
2017-05-19T04:48:31.892Z,19.66
2017-05-19T04:48:58.018Z,19.66
2017-05-19T04:49:24.154Z,19.69
2017-05-19T04:49:50.346Z,19.67
2017-05-19T04:50:16.439Z,19.71
2017-05-19T04:50:42.548Z,19.66
2017-05-19T04:51:08.670Z,19.63
2017-05-19T04:51:34.788Z,19.62
2017-05-19T04:52:00.926Z,19.59
2017-05-19T04:52:27.024Z,19.62
2017-05-19T04:52:53.185Z,19.64
2017-05-19T04:53:19.305Z,19.66
2017-05-19T04:53:45.405Z,19.67
2017-05-19T04:54:11.540Z,19.66
2017-05-19T04:54:37.689Z,19.64
2017-05-19T04:55:03.830Z,19.69
2017-05-19T04:55:29.940Z,19.71
2017-05-19T04:55:56.039Z,19.84
2017-05-19T04:56:22.131Z,19.84
2017-05-19T04:56:48.284Z,19.82
2017-05-19T04:57:14.370Z,19.79
2017-05-19T04:57:40.485Z,19.82
2017-05-19T04:58:06.794Z,19.74
2017-05-19T04:58:32.886Z,19.69
2017-05-19T04:58:59.021Z,19.69
2017-05-19T04:59:25.145Z,19.71
2017-05-19T04:59:51.261Z,19.71
2017-05-19T05:00:17.366Z,19.69
2017-05-19T05:00:43.467Z,19.69
2017-05-19T05:01:09.560Z,19.62
2017-05-19T05:01:35.687Z,19.67
2017-05-19T05:02:01.823Z,19.67
2017-05-19T05:02:27.911Z,19.77
2017-05-19T05:02:54.092Z,19.79
2017-05-19T05:03:20.282Z,19.88
2017-05-19T05:03:46.376Z,19.88
2017-05-19T05:04:12.564Z,19.76
2017-05-19T05:04:38.681Z,19.82
2017-05-19T05:05:04.813Z,19.88
2017-05-19T05:05:30.973Z,19.81
2017-05-19T05:05:57.087Z,19.84
2017-05-19T05:06:23.219Z,19.81
2017-05-19T05:06:49.351Z,19.82
2017-05-19T05:07:15.468Z,19.79
2017-05-19T05:07:41.590Z,19.89
2017-05-19T05:08:07.726Z,19.92
2017-05-19T05:08:33.877Z,19.94
2017-05-19T05:09:00.019Z,19.91
2017-05-19T05:09:26.424Z,19.88
2017-05-19T05:09:52.575Z,19.88
2017-05-19T05:10:18.711Z,19.86
2017-05-19T05:10:44.830Z,19.89
2017-05-19T05:11:10.952Z,19.82
2017-05-19T05:11:37.086Z,19.86
2017-05-19T05:12:03.209Z,19.77
2017-05-19T05:12:29.303Z,19.79
2017-05-19T05:12:55.443Z,19.66
2017-05-19T05:13:21.540Z,19.82
2017-05-19T05:13:47.658Z,19.84
2017-05-19T05:14:13.790Z,19.7
2017-05-19T05:14:39.895Z,19.86
2017-05-19T05:15:06.035Z,19.76
2017-05-19T05:15:32.139Z,19.81
2017-05-19T05:15:58.301Z,19.81
2017-05-19T05:16:24.412Z,19.77
2017-05-19T05:16:50.537Z,19.66
2017-05-19T05:17:16.645Z,19.73
2017-05-19T05:17:42.762Z,19.81
2017-05-19T05:18:08.911Z,19.69
2017-05-19T05:18:35.045Z,19.7
2017-05-19T05:19:01.164Z,19.67
2017-05-19T05:19:27.305Z,19.66
2017-05-19T05:19:53.499Z,19.71
2017-05-19T05:20:19.625Z,19.71
2017-05-19T05:20:45.729Z,19.67
2017-05-19T05:21:11.821Z,19.67
2017-05-19T05:21:37.946Z,19.58
2017-05-19T05:22:04.051Z,19.58
2017-05-19T05:22:30.173Z,19.58
2017-05-19T05:22:56.264Z,19.56
2017-05-19T05:23:22.432Z,19.64
2017-05-19T05:23:48.528Z,19.69
2017-05-19T05:24:14.619Z,19.63
2017-05-19T05:24:40.751Z,19.66
2017-05-19T05:25:06.881Z,19.59
2017-05-19T05:25:32.974Z,19.69
2017-05-19T05:25:59.127Z,19.7
2017-05-19T05:26:25.241Z,19.64
2017-05-19T05:26:51.351Z,19.66
2017-05-19T05:27:17.503Z,19.58
2017-05-19T05:27:43.620Z,19.52
2017-05-19T05:28:09.754Z,19.59
2017-05-19T05:28:35.856Z,19.56
2017-05-19T05:29:02.023Z,19.63
2017-05-19T05:29:28.124Z,19.58
2017-05-19T05:29:54.232Z,19.51
2017-05-19T05:30:20.399Z,19.56
2017-05-19T05:30:46.469Z,19.56
2017-05-19T05:31:12.577Z,19.56
2017-05-19T05:31:38.670Z,19.58
2017-05-19T05:32:04.774Z,19.55
2017-05-19T05:32:30.864Z,19.48
2017-05-19T05:32:56.969Z,19.52
2017-05-19T05:33:23.134Z,19.54
2017-05-19T05:33:49.274Z,19.51
2017-05-19T05:34:15.425Z,19.51
2017-05-19T05:34:41.533Z,19.54
2017-05-19T05:35:07.655Z,19.63
2017-05-19T05:35:33.753Z,19.47
2017-05-19T05:35:59.891Z,19.51
2017-05-19T05:36:25.988Z,19.45
2017-05-19T05:36:52.080Z,19.48
2017-05-19T05:37:18.244Z,19.41